Time;durP1;ratioP1;P1;durP2;ratioP2;P2;SDS_P1;SDS_P2;PMS_P1;PMS_P2;Temp;Humidity;BMP_temperature;BMP_pressure;BME280_temperature;BME280_humidity;BME280_pressure;Samples;Min_cycle;Max_cycle;Signal;HPM_P1;HPM_P2
2022/05/02 00:00:51;;;;;;;74.50;39.40;;;11.60;99.90;;;;;;5068124;28;20021;-47
2022/05/02 00:03:17;;;;;;;62.88;36.08;;;11.60;99.90;;;;;;5068094;28;20117;-47
2022/05/02 00:05:43;;;;;;;62.45;34.55;;;11.50;99.90;;;;;;5068108;28;20430;-45
2022/05/02 00:08:09;;;;;;;73.32;38.58;;;11.60;99.90;;;;;;5068204;28;20135;-47
2022/05/02 00:10:35;;;;;;;71.78;39.50;;;11.50;99.90;;;;;;5071597;28;20108;-47
2022/05/02 00:13:01;;;;;;;72.15;38.33;;;11.60;99.90;;;;;;5071550;28;20573;-46
2022/05/02 00:15:28;;;;;;;74.55;40.92;;;11.50;99.90;;;;;;5071401;28;20062;-47
2022/05/02 00:17:57;;;;;;;73.83;40.03;;;11.50;99.90;;;;;;5071619;28;20024;-46
2022/05/02 00:20:28;;;;;;;80.00;40.55;;;11.40;99.90;;;;;;5071610;28;20567;-46
2022/05/02 00:22:55;;;;;;;70.15;37.80;;;11.50;99.90;;;;;;5068705;28;20383;-45
2022/05/02 00:25:21;;;;;;;74.90;40.33;;;11.50;99.90;;;;;;5070195;28;20031;-46
2022/05/02 00:27:48;;;;;;;69.40;38.95;;;11.50;99.90;;;;;;5071457;28;20009;-46
2022/05/02 00:30:15;;;;;;;63.70;36.70;;;11.50;99.90;;;;;;5071453;28;20048;-47
2022/05/02 00:32:44;;;;;;;68.10;38.08;;;11.50;99.90;;;;;;5071394;28;20478;-46
2022/05/02 00:35:11;;;;;;;71.32;39.67;;;11.40;99.90;;;;;;5067309;28;20092;-46
2022/05/02 00:37:39;;;;;;;66.40;36.33;;;11.40;99.90;;;;;;5071944;28;20060;-46
2022/05/02 00:40:06;;;;;;;64.75;35.78;;;11.30;99.90;;;;;;5071631;28;20088;-47
2022/05/02 00:42:32;;;;;;;;;;;11.30;99.90;;;;;;5072023;28;20067;-47
2022/05/02 00:44:58;;;;;;;67.75;36.22;;;11.30;99.90;;;;;;5071443;28;20323;-46
2022/05/02 00:47:23;;;;;;;60.97;34.92;;;11.30;99.90;;;;;;5053353;28;20074;-46
2022/05/02 00:49:50;;;;;;;62.38;36.95;;;11.40;99.90;;;;;;5071215;28;20067;-46
2022/05/02 00:52:17;;;;;;;60.35;33.80;;;11.40;99.90;;;;;;5053622;28;20017;-47
2022/05/02 00:54:44;;;;;;;61.95;33.83;;;11.30;99.90;;;;;;5071475;28;20043;-46
2022/05/02 00:57:15;;;;;;;59.05;34.10;;;11.20;99.90;;;;;;5071417;28;20100;-46
2022/05/02 00:59:41;;;;;;;54.90;33.63;;;11.40;99.90;;;;;;5070960;28;20702;-47
2022/05/02 01:02:09;;;;;;;59.97;34.83;;;11.40;99.90;;;;;;5071395;28;20074;-47
2022/05/02 01:04:35;;;;;;;;;;;11.40;99.90;;;;;;5071629;28;20528;-46
2022/05/02 01:07:19;;;;;;;59.00;32.53;;;11.30;99.90;;;;;;5071288;28;19908;-47
2022/05/02 01:09:47;;;;;;;60.60;33.53;;;11.30;99.90;;;;;;5070918;28;20020;-46
2022/05/02 01:12:17;;;;;;;66.43;34.22;;;11.20;99.90;;;;;;5070664;28;20090;-46
2022/05/02 01:14:44;;;;;;;62.67;35.75;;;11.40;99.90;;;;;;5070535;28;20052;-46
2022/05/02 01:17:10;;;;;;;69.43;36.42;;;11.40;99.90;;;;;;5070906;28;20021;-48
2022/05/02 01:19:37;;;;;;;65.50;36.72;;;11.30;99.90;;;;;;5070799;28;20024;-48
2022/05/02 01:22:04;;;;;;;58.65;34.03;;;11.50;99.90;;;;;;5070181;28;20072;-46
2022/05/02 01:24:39;;;;;;;59.20;33.33;;;11.30;99.90;;;;;;5070772;28;20036;-46
2022/05/02 01:27:06;;;;;;;65.50;34.85;;;11.30;99.90;;;;;;5070612;28;20032;-48
2022/05/02 01:29:33;;;;;;;55.13;32.80;;;11.20;99.90;;;;;;5070798;28;20111;-48
2022/05/02 01:32:01;;;;;;;59.47;34.20;;;11.20;99.90;;;;;;5070697;28;20032;-47
2022/05/02 01:34:27;;;;;;;53.92;32.28;;;11.10;99.90;;;;;;5069965;28;20045;-44
2022/05/02 01:36:53;;;;;;;60.57;32.57;;;11.10;99.90;;;;;;5070111;28;20023;-46
2022/05/02 01:39:19;;;;;;;62.60;35.97;;;11.10;99.90;;;;;;5070538;28;20021;-46
2022/05/02 01:41:44;;;;;;;60.13;32.65;;;11.10;99.90;;;;;;5070232;28;20495;-46
2022/05/02 01:44:11;;;;;;;55.55;32.20;;;11.10;99.90;;;;;;5070430;28;20360;-48
2022/05/02 01:46:38;;;;;;;54.97;30.57;;;11.00;99.90;;;;;;5070601;28;20054;-47
2022/05/02 01:49:03;;;;;;;52.95;31.02;;;11.10;99.90;;;;;;5070557;28;20342;-46
2022/05/02 01:51:29;;;;;;;51.13;30.95;;;11.10;99.90;;;;;;5070344;28;20838;-46
2022/05/02 01:53:55;;;;;;;52.58;31.10;;;11.10;99.90;;;;;;5069844;28;20052;-48
2022/05/02 01:56:20;;;;;;;54.88;30.50;;;11.10;99.90;;;;;;5070035;28;20035;-45
2022/05/02 01:58:46;;;;;;;54.03;33.17;;;11.00;99.90;;;;;;5070262;28;20478;-46
2022/05/02 02:01:12;;;;;;;53.70;30.50;;;11.00;99.90;;;;;;5069927;28;20433;-45
2022/05/02 02:03:37;;;;;;;52.53;31.20;;;11.00;99.90;;;;;;5069777;28;20051;-46
2022/05/02 02:06:04;;;;;;;48.95;29.40;;;11.00;99.90;;;;;;5069762;28;20099;-46
2022/05/02 02:08:33;;;;;;;55.65;30.95;;;11.00;99.90;;;;;;5069829;28;20487;-47
2022/05/02 02:11:02;;;;;;;51.17;30.48;;;10.90;99.90;;;;;;5070044;28;20016;-45
2022/05/02 02:13:27;;;;;;;56.97;31.23;;;10.80;99.90;;;;;;5069474;28;20105;-47
2022/05/02 02:15:54;;;;;;;57.15;30.73;;;10.80;99.90;;;;;;5069871;28;20064;-46
2022/05/02 02:18:20;;;;;;;51.80;31.77;;;10.70;99.90;;;;;;5069803;28;20094;-47
2022/05/02 02:20:48;;;;;;;55.58;29.67;;;10.80;99.90;;;;;;5069640;28;20548;-47
2022/05/02 02:23:15;;;;;;;49.65;30.02;;;10.70;99.90;;;;;;5067999;28;20107;-47
2022/05/02 02:25:42;;;;;;;52.50;30.45;;;10.80;99.90;;;;;;5069729;28;20020;-47
2022/05/02 02:28:07;;;;;;;47.17;28.65;;;10.80;99.90;;;;;;5069496;28;20498;-47
2022/05/02 02:30:33;;;;;;;48.42;30.30;;;10.80;99.90;;;;;;5069479;28;20033;-46
2022/05/02 02:33:00;;;;;;;43.90;28.17;;;10.90;99.90;;;;;;5069578;28;20016;-47
2022/05/02 02:35:27;;;;;;;52.30;31.88;;;10.90;99.90;;;;;;5069136;28;20103;-46
2022/05/02 02:37:52;;;;;;;50.97;30.20;;;10.80;99.90;;;;;;5069398;28;20028;-46
2022/05/02 02:40:18;;;;;;;48.60;29.92;;;10.80;99.90;;;;;;5069315;28;20025;-46
2022/05/02 02:42:45;;;;;;;50.22;31.67;;;10.80;99.90;;;;;;5069262;28;20024;-48
2022/05/02 02:45:11;;;;;;;56.72;32.22;;;10.80;99.90;;;;;;5069469;28;20094;-47
2022/05/02 02:47:37;;;;;;;48.20;32.13;;;10.70;99.90;;;;;;5069303;28;20135;-48
2022/05/02 02:50:03;;;;;;;48.95;30.65;;;10.70;99.90;;;;;;5069420;28;20028;-48
2022/05/02 02:52:30;;;;;;;52.92;32.05;;;10.80;99.90;;;;;;5069282;28;20017;-48
2022/05/02 02:54:56;;;;;;;55.75;34.17;;;10.60;99.90;;;;;;5069159;28;20013;-46
2022/05/02 02:57:22;;;;;;;54.05;33.15;;;10.60;99.90;;;;;;5061769;28;20040;-46
2022/05/02 02:59:48;;;;;;;48.40;30.42;;;10.50;99.90;;;;;;5068388;28;20029;-45
2022/05/02 03:02:14;;;;;;;62.05;32.63;;;10.40;99.90;;;;;;5069486;28;20016;-45
2022/05/02 03:07:26;;;;;;;47.90;31.75;;;10.40;99.90;;;;;;5069507;28;20074;-45
2022/05/02 03:09:53;;;;;;;67.25;36.05;;;10.30;99.90;;;;;;5069806;28;20029;-45
2022/05/02 03:12:19;;;;;;;53.88;33.95;;;10.30;99.90;;;;;;5069842;28;20025;-46
2022/05/02 03:14:45;;;;;;;59.60;34.47;;;10.30;99.90;;;;;;5069355;28;20058;-46
2022/05/02 03:17:11;;;;;;;53.70;32.95;;;10.30;99.90;;;;;;5069246;28;20494;-46
2022/05/02 03:19:38;;;;;;;52.50;33.50;;;10.30;99.90;;;;;;5069405;28;20060;-46
2022/05/02 03:22:04;;;;;;;56.70;34.45;;;10.20;99.90;;;;;;5069638;28;20024;-45
2022/05/02 03:24:30;;;;;;;51.53;33.33;;;10.20;99.90;;;;;;5069236;28;20040;-46
2022/05/02 03:26:56;;;;;;;55.85;33.15;;;10.20;99.90;;;;;;5069539;28;20036;-48
2022/05/02 03:29:21;;;;;;;51.20;32.15;;;10.10;99.90;;;;;;5069521;28;20426;-46
2022/05/02 03:31:47;;;;;;;47.90;30.50;;;10.20;99.90;;;;;;5069535;28;20573;-47
2022/05/02 03:34:13;;;;;;;51.63;31.48;;;10.10;99.90;;;;;;5069168;28;20063;-45
2022/05/02 03:36:39;;;;;;;51.20;32.67;;;10.20;99.90;;;;;;5069435;28;20028;-45
2022/05/02 03:39:04;;;;;;;56.55;32.95;;;10.20;99.90;;;;;;5069516;28;20037;-49
2022/05/02 03:41:30;;;;;;;51.80;30.98;;;9.90;99.90;;;;;;5069565;28;20024;-46
2022/05/02 03:43:56;;;;;;;45.80;29.10;;;9.70;99.90;;;;;;5070870;28;20041;-46
2022/05/02 03:46:22;;;;;;;43.50;28.23;;;9.60;99.90;;;;;;5073229;28;20031;-45
2022/05/02 03:48:48;;;;;;;48.58;31.15;;;9.50;99.90;;;;;;5072843;28;20468;-46
2022/05/02 03:51:14;;;;;;;48.00;28.95;;;9.50;99.90;;;;;;5073014;28;20037;-45
2022/05/02 03:53:40;;;;;;;49.95;29.10;;;9.40;99.90;;;;;;5073170;28;20029;-44
2022/05/02 03:56:06;;;;;;;49.63;30.13;;;9.30;99.90;;;;;;5072973;28;20162;-45
2022/05/02 03:58:31;;;;;;;44.72;30.00;;;9.40;99.90;;;;;;5073064;28;20098;-45
2022/05/02 04:00:57;;;;;;;46.65;31.02;;;9.40;99.90;;;;;;5072770;28;20067;-46
2022/05/02 04:03:23;;;;;;;56.97;33.47;;;9.50;99.90;;;;;;5072837;28;20065;-45
2022/05/02 04:05:49;;;;;;;53.67;34.55;;;9.60;99.90;;;;;;5072619;28;20471;-45
2022/05/02 04:08:15;;;;;;;46.90;29.67;;;9.60;99.90;;;;;;5072897;28;20029;-46
2022/05/02 04:10:41;;;;;;;47.00;29.83;;;9.60;99.90;;;;;;5073014;28;20063;-46
2022/05/02 04:13:07;;;;;;;54.53;34.03;;;9.60;99.90;;;;;;5072361;28;20485;-45
2022/05/02 04:15:34;;;;;;;59.08;35.58;;;9.60;99.90;;;;;;5070862;28;20063;-46
2022/05/02 04:17:59;;;;;;;50.10;30.77;;;9.50;99.90;;;;;;5072632;28;20384;-47
2022/05/02 04:20:25;;;;;;;47.92;31.83;;;9.50;99.90;;;;;;5072772;28;20471;-46
2022/05/02 04:22:51;;;;;;;53.67;32.53;;;9.60;99.90;;;;;;5072566;28;20033;-45
2022/05/02 04:25:17;;;;;;;55.53;32.33;;;9.60;99.90;;;;;;5072185;28;20033;-46
2022/05/02 04:27:43;;;;;;;46.03;30.48;;;9.50;99.90;;;;;;5072592;28;20070;-46
2022/05/02 04:30:10;;;;;;;46.00;30.05;;;9.40;99.90;;;;;;5072355;28;20032;-45
2022/05/02 04:32:37;;;;;;;45.13;29.55;;;9.40;99.90;;;;;;5072141;28;20099;-46
2022/05/02 04:35:03;;;;;;;44.05;28.92;;;9.30;99.90;;;;;;5072182;28;20082;-45
2022/05/02 04:37:29;;;;;;;45.67;29.83;;;9.40;99.90;;;;;;5054062;28;20030;-46
2022/05/02 04:39:55;;;;;;;52.85;30.50;;;9.50;99.90;;;;;;5072121;28;20197;-45
2022/05/02 04:42:21;;;;;;;48.03;30.92;;;9.60;99.90;;;;;;5072172;28;20040;-47
2022/05/02 04:44:46;;;;;;;48.10;31.73;;;9.60;99.90;;;;;;5071945;28;20075;-45
2022/05/02 04:47:12;;;;;;;51.92;31.95;;;9.60;99.90;;;;;;5071757;28;20070;-45
2022/05/02 04:49:38;;;;;;;52.13;33.80;;;9.70;99.90;;;;;;5072172;28;20475;-45
2022/05/02 04:52:04;;;;;;;48.92;32.60;;;9.80;99.90;;;;;;5054011;28;20025;-46
2022/05/02 04:54:30;;;;;;;60.65;34.20;;;9.80;99.90;;;;;;5069820;28;20219;-45
2022/05/02 04:56:55;;;;;;;49.85;33.53;;;9.90;99.90;;;;;;5070981;28;20107;-45
2022/05/02 04:59:21;;;;;;;50.65;33.42;;;10.00;99.90;;;;;;5071523;28;20107;-45
2022/05/02 05:01:47;;;;;;;53.42;34.75;;;10.10;99.90;;;;;;5071669;28;20025;-47
2022/05/02 05:04:12;;;;;;;54.95;35.47;;;10.10;99.90;;;;;;5071431;28;20483;-46
2022/05/02 05:06:38;;;;;;;54.92;36.10;;;10.10;99.90;;;;;;5071835;28;20028;-46
2022/05/02 05:09:04;;;;;;;55.20;36.75;;;10.20;99.90;;;;;;5071422;28;20028;-45
2022/05/02 05:11:59;;;;;;;59.60;38.17;;;10.30;99.90;;;;;;5071357;28;20064;-46
2022/05/02 05:17:47;;;;;;;59.72;38.25;;;10.50;99.90;;;;;;5071491;28;20502;-47
2022/05/02 05:20:47;;;;;;;56.38;37.00;;;10.60;99.90;;;;;;5071368;28;20104;-46
2022/05/02 05:23:28;;;;;;;56.70;37.30;;;10.70;99.90;;;;;;5002243;28;20383;-46
2022/05/02 05:26:12;;;;;;;59.13;37.13;;;10.90;99.90;;;;;;5071370;28;20035;-46
2022/05/02 05:28:59;;;;;;;62.88;39.65;;;10.90;99.90;;;;;;5071291;28;20070;-45
2022/05/02 05:31:42;;;;;;;68.03;40.05;;;11.00;99.90;;;;;;5071060;28;20033;-46
2022/05/02 05:34:33;;;;;;;63.38;39.75;;;11.10;99.90;;;;;;5071011;28;20028;-46
2022/05/02 05:37:31;;;;;;;61.28;37.35;;;11.20;99.90;;;;;;5055016;28;20020;-46
2022/05/02 05:40:27;;;;;;;59.22;36.83;;;11.40;99.90;;;;;;5071113;28;20025;-46
2022/05/02 05:43:23;;;;;;;58.90;39.08;;;11.50;99.90;;;;;;5070785;28;20032;-46
2022/05/02 05:46:10;;;;;;;60.25;39.55;;;11.60;99.90;;;;;;5070562;28;20541;-46
2022/05/02 05:48:56;;;;;;;66.47;40.45;;;11.70;99.90;;;;;;5071007;28;20032;-45
2022/05/02 05:51:50;;;;;;;64.05;39.25;;;11.80;99.90;;;;;;5070779;28;20094;-46
2022/05/02 05:54:15;;;;;;;67.00;39.03;;;11.90;99.90;;;;;;5050627;28;20035;-46
2022/05/02 05:57:06;;;;;;;58.75;36.58;;;12.10;99.90;;;;;;5050626;28;20024;-46
2022/05/02 05:59:52;;;;;;;55.03;35.38;;;12.20;99.90;;;;;;5050387;28;20067;-45
2022/05/02 06:02:21;;;;;;;60.92;38.20;;;12.20;99.90;;;;;;5050393;28;20082;-45
2022/05/02 06:04:51;;;;;;;65.25;36.80;;;12.30;99.90;;;;;;5050510;28;20037;-45
2022/05/02 06:07:18;;;;;;;58.53;37.78;;;12.40;99.90;;;;;;5050139;28;20028;-45
2022/05/02 06:09:44;;;;;;;60.03;36.50;;;12.50;99.90;;;;;;5050472;28;20023;-46
2022/05/02 06:12:13;;;;;;;65.18;37.83;;;12.70;99.90;;;;;;5050336;28;20068;-46
2022/05/02 06:20:14;;;;;;;61.80;37.80;;;13.00;99.90;;;;;;5050433;28;20071;-45
2022/05/02 06:22:41;;;;;;;72.60;42.08;;;13.20;99.90;;;;;;5050300;28;20032;-45
2022/05/02 06:25:07;;;;;;;62.10;39.10;;;13.30;99.90;;;;;;5050284;28;20029;-45
2022/05/02 06:27:33;;;;;;;63.60;37.15;;;13.40;99.90;;;;;;5050540;28;20071;-48
2022/05/02 06:30:03;;;;;;;57.83;37.95;;;13.50;99.90;;;;;;5050117;28;20076;-47
2022/05/02 06:32:36;;;;;;;56.78;38.55;;;13.70;99.90;;;;;;5049982;28;20025;-46
2022/05/02 06:35:02;;;;;;;58.88;37.28;;;13.80;99.90;;;;;;5051510;28;20025;-46
2022/05/02 06:37:34;;;;;;;55.35;36.92;;;13.80;99.90;;;;;;5069868;28;20033;-46
2022/05/02 06:40:41;;;;;;;54.08;35.53;;;13.90;99.90;;;;;;5051752;28;20059;-47
2022/05/02 06:43:32;;;;;;;57.28;34.58;;;14.10;99.90;;;;;;5069548;28;20429;-46
2022/05/02 06:46:26;;;;;;;48.85;33.33;;;14.20;99.90;;;;;;5069697;28;20033;-46
2022/05/02 06:49:03;;;;;;;55.75;34.65;;;14.30;99.90;;;;;;5069639;28;20119;-46
2022/05/02 06:51:47;;;;;;;58.33;34.53;;;14.50;99.90;;;;;;5069686;28;20020;-46
2022/05/02 06:54:57;;;;;;;58.83;33.53;;;14.60;99.90;;;;;;5049568;28;20083;-46
2022/05/02 06:58:06;;;;;;;51.47;32.13;;;14.70;99.90;;;;;;5049751;28;20102;-46
2022/05/02 07:00:37;;;;;;;45.00;31.05;;;14.80;99.90;;;;;;5049539;28;20031;-45
2022/05/02 07:03:31;;;;;;;48.55;30.50;;;15.00;99.90;;;;;;5049595;28;20037;-46
2022/05/02 07:06:17;;;;;;;50.20;29.60;;;15.10;99.90;;;;;;5027259;28;20059;-45
2022/05/02 07:09:00;;;;;;;34.22;22.02;;;15.20;99.90;;;;;;5049583;28;20434;-46
2022/05/02 07:11:54;;;;;;;36.13;23.48;;;15.40;99.90;;;;;;5049728;28;20032;-46
2022/05/02 07:14:31;;;;;;;38.38;23.00;;;15.50;99.90;;;;;;5048746;28;20052;-46
2022/05/02 07:17:06;;;;;;;53.42;32.03;;;15.60;99.90;;;;;;5049637;28;20028;-45
2022/05/02 07:20:03;;;;;;;49.08;32.40;;;15.80;99.90;;;;;;5052200;28;20025;-45
2022/05/02 07:22:37;;;;;;;62.70;33.88;;;15.90;99.90;;;;;;5048938;28;20033;-46
2022/05/02 07:25:13;;;;;;;50.33;32.45;;;16.00;99.90;;;;;;5053486;28;20149;-47
2022/05/02 07:28:21;;;;;;;49.58;32.65;;;16.10;99.90;;;;;;5053501;28;20585;-46
2022/05/02 07:30:49;;;;;;;47.90;30.92;;;16.20;99.90;;;;;;5053607;28;20116;-46
2022/05/02 07:33:15;;;;;;;53.72;31.13;;;16.20;99.90;;;;;;5053264;28;20056;-47
2022/05/02 07:35:43;;;;;;;47.22;30.90;;;16.20;99.90;;;;;;5060422;28;20035;-46
2022/05/02 07:38:12;;;;;;;43.50;27.92;;;16.30;99.90;;;;;;5073211;28;20029;-46
2022/05/02 07:41:22;;;;;;;43.22;27.08;;;16.40;99.90;;;;;;5073298;28;20028;-46
2022/05/02 07:43:30;;;;;;;41.00;25.55;;;16.50;99.90;;;;;;5072734;28;20052;-46
2022/05/02 07:45:57;;;;;;;36.05;24.20;;;16.60;99.90;;;;;;5073130;28;20020;-45
2022/05/02 07:48:23;;;;;;;32.17;21.15;;;16.80;99.90;;;;;;5072915;28;20446;-45
2022/05/02 07:50:50;;;;;;;18.52;12.55;;;16.90;99.90;;;;;;5072883;28;20020;-45
2022/05/02 07:53:16;;;;;;;;;;;17.30;95.10;;;;;;5073187;28;20028;-45
2022/05/02 07:55:47;;;;;;;21.38;12.55;;;17.30;90.80;;;;;;5072995;28;19950;-46
2022/05/02 07:58:15;;;;;;;24.75;14.55;;;17.50;92.90;;;;;;5073039;28;20090;-47
2022/05/02 08:00:40;;;;;;;19.95;12.23;;;17.70;89.10;;;;;;5072689;28;20029;-46
2022/05/02 08:03:06;;;;;;;26.23;14.65;;;17.60;84.10;;;;;;5071179;28;20041;-45
2022/05/02 08:05:36;;;;;;;23.48;14.88;;;17.70;86.10;;;;;;5072690;28;20024;-46
2022/05/02 08:08:17;;;;;;;26.67;14.95;;;17.80;89.80;;;;;;5071505;28;20056;-46
2022/05/02 08:10:43;;;;;;;25.63;15.20;;;17.80;86.80;;;;;;5072559;28;20034;-46
2022/05/02 08:13:19;;;;;;;22.20;13.23;;;17.90;86.70;;;;;;5072577;28;20103;-49
2022/05/02 08:15:53;;;;;;;17.65;11.00;;;18.00;82.80;;;;;;5072442;28;20150;-45
2022/05/02 08:18:39;;;;;;;16.63;10.60;;;18.10;83.00;;;;;;5072462;28;20074;-48
2022/05/02 08:21:18;;;;;;;16.42;9.30;;;18.30;77.00;;;;;;5072405;28;20024;-45
2022/05/02 08:27:15;;;;;;;13.43;7.78;;;18.40;77.30;;;;;;5072331;28;20038;-48
2022/05/02 08:29:47;;;;;;;16.88;8.02;;;18.50;72.90;;;;;;5072308;28;20017;-47
2022/05/02 08:32:16;;;;;;;11.82;7.32;;;18.60;72.50;;;;;;5072066;28;20035;-47
2022/05/02 08:34:45;;;;;;;16.77;8.00;;;18.70;70.50;;;;;;5072182;28;20475;-47
2022/05/02 08:37:19;;;;;;;12.10;8.15;;;18.90;69.20;;;;;;5071953;28;20021;-46
2022/05/02 08:40:04;;;;;;;14.02;7.78;;;19.00;68.70;;;;;;5071934;28;20120;-45
2022/05/02 08:42:49;;;;;;;12.68;7.80;;;19.10;65.90;;;;;;5072257;28;20352;-46
2022/05/02 08:45:53;;;;;;;15.93;6.72;;;19.30;67.00;;;;;;5071807;28;20127;-45
2022/05/02 08:48:32;;;;;;;16.48;7.70;;;19.40;65.90;;;;;;5023630;28;20475;-46
2022/05/02 08:51:16;;;;;;;13.25;7.80;;;19.40;64.20;;;;;;5071817;28;20630;-46
2022/05/02 08:53:58;;;;;;;10.93;6.93;;;19.40;59.70;;;;;;5071559;28;20025;-46
2022/05/02 08:56:33;;;;;;;11.70;7.07;;;19.50;59.80;;;;;;5070773;28;20025;-47
2022/05/02 08:59:26;;;;;;;13.15;6.90;;;19.60;62.60;;;;;;5071774;28;20059;-45
2022/05/02 09:02:26;;;;;;;12.00;6.68;;;19.80;62.90;;;;;;5071689;28;20051;-46
2022/05/02 09:05:29;;;;;;;12.02;7.15;;;20.00;61.70;;;;;;5071605;28;20118;-46
2022/05/02 09:08:04;;;;;;;11.95;6.63;;;20.20;60.80;;;;;;5071745;28;20025;-45
2022/05/02 09:10:51;;;;;;;10.32;6.75;;;20.00;57.50;;;;;;5071799;28;20387;-46
2022/05/02 09:14:03;;;;;;;14.10;6.43;;;19.80;56.60;;;;;;5071052;28;20024;-46
2022/05/02 09:16:45;;;;;;;10.90;6.63;;;20.00;59.50;;;;;;5071460;28;20531;-46
2022/05/02 09:19:36;;;;;;;12.73;7.22;;;19.90;59.00;;;;;;5070043;28;20037;-47
2022/05/02 09:22:39;;;;;;;13.65;6.80;;;20.00;60.60;;;;;;5071093;28;20035;-45
2022/05/02 09:25:10;;;;;;;12.45;8.57;;;20.20;56.30;;;;;;5071038;28;20806;-48
2022/05/02 09:28:17;;;;;;;15.48;7.60;;;20.00;55.60;;;;;;5071131;28;20463;-46
2022/05/02 09:30:52;;;;;;;13.48;7.97;;;20.20;60.10;;;;;;5045357;28;20044;-46
2022/05/02 09:33:29;;;;;;;19.83;7.65;;;20.60;59.60;;;;;;5051049;28;20017;-46
2022/05/02 09:36:03;;;;;;;14.27;7.27;;;21.00;56.00;;;;;;5057735;28;20425;-45
2022/05/02 09:38:40;;;;;;;10.00;6.38;;;21.30;58.10;;;;;;5069394;28;20079;-46
2022/05/02 09:41:40;;;;;;;9.00;5.45;;;21.50;55.30;;;;;;5070112;28;20035;-46
2022/05/02 09:50:34;;;;;;;9.45;5.97;;;21.70;52.40;;;;;;5070943;28;20537;-47
2022/05/02 09:53:16;;;;;;;12.25;6.03;;;22.10;51.20;;;;;;5052583;28;20438;-46
2022/05/02 09:58:37;;;;;;;9.45;5.85;;;22.30;50.30;;;;;;5070524;28;20051;-45
2022/05/02 10:01:06;;;;;;;10.65;6.45;;;22.30;52.40;;;;;;5070523;28;20031;-45
2022/05/02 10:03:58;;;;;;;11.77;5.85;;;22.30;52.50;;;;;;5070200;28;20033;-45
2022/05/02 10:06:34;;;;;;;12.93;5.97;;;22.30;51.30;;;;;;5070454;28;20021;-46
2022/05/02 10:09:21;;;;;;;10.65;6.30;;;22.30;51.70;;;;;;5070011;28;20024;-46
2022/05/02 10:12:10;;;;;;;12.03;6.17;;;22.40;53.40;;;;;;5069977;28;20452;-46
2022/05/02 10:14:49;;;;;;;9.80;5.28;;;22.30;52.50;;;;;;5029477;28;20523;-47
2022/05/02 10:17:40;;;;;;;10.35;5.82;;;22.50;50.20;;;;;;5049988;28;20495;-46
2022/05/02 10:20:16;;;;;;;9.00;5.63;;;22.60;52.30;;;;;;5049731;28;20476;-48
2022/05/02 10:22:46;;;;;;;9.23;6.07;;;23.10;49.60;;;;;;5050077;28;20466;-47
2022/05/02 10:25:18;;;;;;;9.57;5.57;;;22.80;50.30;;;;;;5050376;28;20029;-47
2022/05/02 10:28:14;;;;;;;9.35;6.22;;;22.90;49.80;;;;;;5050278;28;20028;-47
2022/05/02 10:30:50;;;;;;;10.05;5.97;;;22.90;48.80;;;;;;5050132;28;20029;-46
2022/05/02 10:33:39;;;;;;;9.15;4.97;;;22.30;49.00;;;;;;5050159;28;20036;-46
2022/05/02 10:36:06;;;;;;;9.52;5.82;;;22.50;48.90;;;;;;5042301;28;20044;-47
2022/05/02 10:38:34;;;;;;;9.95;6.03;;;22.60;48.50;;;;;;5050384;28;20033;-46
2022/05/02 10:41:16;;;;;;;10.95;6.22;;;22.40;48.30;;;;;;5049961;28;20036;-46
2022/05/02 10:43:49;;;;;;;7.32;5.18;;;22.30;49.80;;;;;;5049764;28;20175;-47
2022/05/02 10:46:16;;;;;;;16.67;5.28;;;22.20;51.20;;;;;;5042242;28;20515;-46
2022/05/02 10:48:49;;;;;;;;;;;22.20;49.10;;;;;;5030264;28;20104;-45
2022/05/02 10:51:40;;;;;;;11.05;5.15;;;22.20;50.40;;;;;;5029724;28;19913;-48
2022/05/02 10:54:19;;;;;;;9.50;5.53;;;22.00;50.20;;;;;;5032004;28;20037;-46
2022/05/02 10:56:53;;;;;;;8.90;5.35;;;22.00;51.30;;;;;;5010098;28;20037;-46
2022/05/02 10:59:23;;;;;;;12.80;5.68;;;22.00;51.60;;;;;;5014551;28;20419;-47
2022/05/02 11:02:02;;;;;;;10.18;5.10;;;21.90;51.40;;;;;;5029900;28;20029;-46
2022/05/02 11:04:46;;;;;;;11.82;5.22;;;21.80;50.90;;;;;;5030133;28;20037;-45
2022/05/02 11:07:23;;;;;;;9.93;5.10;;;21.70;49.90;;;;;;5030011;28;20018;-48
2022/05/02 11:09:55;;;;;;;8.23;4.40;;;21.60;50.70;;;;;;5029783;28;20026;-46
2022/05/02 11:12:31;;;;;;;9.23;5.72;;;21.40;50.90;;;;;;5028328;28;20385;-45
2022/05/02 11:15:13;;;;;;;10.30;5.40;;;21.50;51.40;;;;;;5057743;28;20420;-47
2022/05/02 11:17:44;;;;;;;9.95;4.55;;;21.50;52.00;;;;;;5069494;28;20035;-46
2022/05/02 11:20:42;;;;;;;12.45;5.00;;;21.50;52.10;;;;;;5069712;28;20425;-46
2022/05/02 11:23:40;;;;;;;11.30;5.22;;;21.60;51.80;;;;;;5069287;28;20416;-46
2022/05/02 11:26:37;;;;;;;10.73;6.70;;;21.50;48.90;;;;;;5069455;28;20111;-46
2022/05/02 11:29:23;;;;;;;11.70;5.85;;;21.50;51.20;;;;;;5069449;28;20070;-47
2022/05/02 11:31:57;;;;;;;10.38;5.28;;;21.60;51.30;;;;;;5069326;28;20020;-47
2022/05/02 11:34:41;;;;;;;9.40;5.57;;;22.10;53.10;;;;;;5069436;28;20037;-47
2022/05/02 11:37:23;;;;;;;10.50;5.22;;;22.40;49.80;;;;;;5069252;28;20036;-47
2022/05/02 11:40:01;;;;;;;16.17;5.75;;;22.20;50.50;;;;;;5069233;28;20561;-47
2022/05/02 11:42:28;;;;;;;10.02;5.88;;;22.20;50.20;;;;;;5069522;28;20053;-47
2022/05/02 11:45:14;;;;;;;12.82;5.72;;;22.20;48.80;;;;;;5069316;28;20056;-47
2022/05/02 11:47:40;;;;;;;8.93;5.60;;;22.20;49.40;;;;;;5069207;28;20395;-47
2022/05/02 11:50:07;;;;;;;9.90;4.63;;;22.30;51.10;;;;;;5068979;28;20032;-47
2022/05/02 11:52:38;;;;;;;9.48;5.38;;;22.50;47.90;;;;;;5069219;28;20652;-46
2022/05/02 11:55:09;;;;;;;8.10;5.70;;;22.70;48.10;;;;;;5068944;28;20108;-47
2022/05/02 11:57:39;;;;;;;8.15;5.30;;;22.80;48.70;;;;;;5069405;28;20033;-46
2022/05/02 12:00:17;;;;;;;12.98;5.47;;;23.40;52.00;;;;;;5069090;28;20029;-47
2022/05/02 12:02:58;;;;;;;9.32;5.65;;;23.80;47.40;;;;;;5067730;28;20029;-47
2022/05/02 12:05:31;;;;;;;8.65;5.13;;;24.00;48.90;;;;;;5071271;28;20036;-47
2022/05/02 12:07:59;;;;;;;10.10;4.97;;;24.30;49.70;;;;;;5072681;28;20020;-46
2022/05/02 12:10:43;;;;;;;8.63;5.50;;;24.60;45.80;;;;;;5072788;28;20044;-47
2022/05/02 12:13:14;;;;;;;6.88;4.68;;;24.00;44.30;;;;;;5072317;28;20438;-46
2022/05/02 12:16:03;;;;;;;8.60;5.43;;;24.00;46.40;;;;;;5072551;28;20052;-46
2022/05/02 12:18:42;;;;;;;9.77;5.80;;;24.00;46.20;;;;;;5072624;28;20028;-46
2022/05/02 12:21:16;;;;;;;14.07;6.80;;;24.20;43.50;;;;;;5072363;28;20032;-47
2022/05/02 12:23:43;;;;;;;7.53;5.15;;;24.20;45.80;;;;;;5072317;28;20033;-47
2022/05/02 12:26:18;;;;;;;9.63;5.50;;;24.50;45.70;;;;;;5054468;28;20383;-47
2022/05/02 12:29:04;;;;;;;9.88;5.60;;;24.50;43.50;;;;;;5072484;28;20033;-47
2022/05/02 12:31:32;;;;;;;7.95;5.70;;;24.50;45.50;;;;;;5072443;28;20021;-46
2022/05/02 12:34:05;;;;;;;11.98;5.65;;;24.30;46.40;;;;;;5072170;28;20140;-46
2022/05/02 12:36:38;;;;;;;10.88;5.78;;;24.10;46.00;;;;;;5072288;28;20017;-46
2022/05/02 12:39:13;;;;;;;10.27;5.35;;;23.90;44.90;;;;;;5072221;28;20086;-46
2022/05/02 12:41:49;;;;;;;11.85;6.10;;;23.80;46.30;;;;;;5072225;28;20467;-47
2022/05/02 12:44:17;;;;;;;11.82;5.32;;;23.80;46.40;;;;;;5071953;28;20082;-47
2022/05/02 12:46:48;;;;;;;10.60;5.82;;;24.10;47.80;;;;;;5072338;28;20376;-46
2022/05/02 12:49:32;;;;;;;10.40;5.47;;;24.40;46.60;;;;;;5071809;28;20467;-47
2022/05/02 12:51:58;;;;;;;11.88;4.72;;;24.50;43.80;;;;;;5071948;28;20036;-47
2022/05/02 12:54:27;;;;;;;9.30;5.97;;;24.70;45.40;;;;;;5071822;28;20032;-46
2022/05/02 13:02:38;;;;;;;12.70;6.65;;;24.60;44.20;;;;;;5071946;28;20132;-46
2022/05/02 13:05:09;;;;;;;10.65;6.10;;;24.50;44.70;;;;;;5071508;28;20032;-48
2022/05/02 13:07:54;;;;;;;9.32;5.38;;;24.50;43.80;;;;;;5071912;28;20350;-47
2022/05/02 13:10:25;;;;;;;13.82;4.85;;;24.00;44.30;;;;;;5071691;28;20094;-46
2022/05/02 13:13:03;;;;;;;9.90;5.40;;;23.70;44.40;;;;;;5071382;28;20039;-46
2022/05/02 13:15:30;;;;;;;;;;;23.60;45.90;;;;;;5071494;28;20048;-46
2022/05/02 13:17:59;;;;;;;12.20;5.47;;;23.50;46.80;;;;;;5070739;28;20010;-46
2022/05/02 13:20:29;;;;;;;13.52;5.35;;;23.30;45.80;;;;;;5071365;28;20059;-47
2022/05/02 13:23:10;;;;;;;12.00;5.80;;;23.10;46.50;;;;;;5071451;28;20024;-47
2022/05/02 13:26:08;;;;;;;11.25;5.35;;;23.00;45.50;;;;;;5071390;28;20020;-46
2022/05/02 13:29:03;;;;;;;10.02;5.47;;;22.90;46.90;;;;;;5071634;28;20075;-47
2022/05/02 13:31:44;;;;;;;9.57;5.60;;;22.60;45.80;;;;;;5071076;28;20090;-46
2022/05/02 13:34:36;;;;;;;12.68;5.57;;;22.40;47.40;;;;;;5071000;28;20116;-46
2022/05/02 13:37:41;;;;;;;11.95;5.68;;;22.30;48.30;;;;;;5071054;28;20471;-47